Time;durP1;ratioP1;P1;durP2;ratioP2;P2;SDS_P1;SDS_P2;PMS_P1;PMS_P2;Temp;Humidity;BMP_temperature;BMP_pressure;BME280_temperature;BME280_humidity;BME280_pressure;Samples;Min_cycle;Max_cycle;Signal;HPM_P1;HPM_P2
2023/02/03 00:00:11;0.00;0.00;0.62;0.00;0.00;0.62;2.63;1.10;;;22.30;25.60;;;;;;2262148;61;20407;-63
2023/02/03 00:02:55;0.00;0.00;0.62;0.00;0.00;0.62;1.80;1.10;;;22.30;25.60;;;;;;2261664;61;20407;-63
2023/02/03 00:05:41;0.00;0.00;0.62;0.00;0.00;0.62;1.40;0.90;;;22.30;25.60;;;;;;2258656;61;20369;-62
2023/02/03 00:08:26;0.00;0.00;0.62;0.00;0.00;0.62;1.30;0.80;;;22.30;25.60;;;;;;2262294;61;20453;-63
2023/02/03 00:11:11;0.00;0.00;0.62;0.00;0.00;0.62;1.50;0.83;;;22.30;25.60;;;;;;2261842;61;20392;-62
2023/02/03 00:13:57;0.00;0.00;0.62;0.00;0.00;0.62;1.73;0.90;;;22.30;25.60;;;;;;2262188;61;20444;-64
2023/02/03 00:16:42;0.00;0.00;0.62;0.00;0.00;0.62;2.10;0.87;;;22.30;25.70;;;;;;2261687;61;20384;-61
2023/02/03 00:19:27;0.00;0.00;0.62;0.00;0.00;0.62;1.50;0.80;;;22.30;25.70;;;;;;2261638;61;20408;-62
2023/02/03 00:22:12;0.00;0.00;0.62;0.00;0.00;0.62;1.73;0.90;;;22.30;25.70;;;;;;2262010;61;20786;-62
2023/02/03 00:24:57;0.00;0.00;0.62;0.00;0.00;0.62;1.50;0.90;;;22.30;25.70;;;;;;2258637;61;20817;-67
2023/02/03 00:27:42;0.00;0.00;0.62;0.00;0.00;0.62;1.40;0.80;;;22.30;25.70;;;;;;2261103;61;20927;-63
2023/02/03 00:30:29;0.00;0.00;0.62;0.00;0.00;0.62;1.73;0.97;;;22.30;26.20;;;;;;2262651;61;20414;-59
2023/02/03 00:33:14;0.00;0.00;0.62;0.00;0.00;0.62;1.40;0.80;;;22.30;25.70;;;;;;2261655;61;20369;-62
2023/02/03 00:36:04;0.00;0.00;0.62;0.00;0.00;0.62;1.70;1.20;;;22.30;25.80;;;;;;2261480;61;20369;-60
2023/02/03 00:38:49;0.00;0.00;0.62;0.00;0.00;0.62;1.40;0.80;;;22.30;25.70;;;;;;2261810;61;20353;-62
2023/02/03 00:41:34;0.00;0.00;0.62;0.00;0.00;0.62;1.50;0.93;;;22.30;25.70;;;;;;2261431;61;20968;-63
2023/02/03 00:44:18;0.00;0.00;0.62;0.00;0.00;0.62;1.50;0.80;;;22.30;25.70;;;;;;2258894;61;20396;-64
2023/02/03 00:47:05;0.00;0.00;0.62;0.00;0.00;0.62;1.70;0.90;;;22.20;25.70;;;;;;2259763;61;20912;-65
2023/02/03 00:49:50;0.00;0.00;0.62;0.00;0.00;0.62;1.40;0.90;;;22.20;25.80;;;;;;2258639;61;20439;-64
2023/02/03 00:52:35;0.00;0.00;0.62;0.00;0.00;0.62;1.33;0.80;;;22.20;25.80;;;;;;2257066;61;20480;-64
2023/02/03 00:55:20;0.00;0.00;0.62;0.00;0.00;0.62;1.70;0.90;;;22.20;25.90;;;;;;2260061;61;20361;-62
2023/02/03 00:58:05;0.00;0.00;0.62;0.00;0.00;0.62;1.40;0.90;;;22.20;25.90;;;;;;2259937;61;20376;-64
2023/02/03 01:00:50;0.00;0.00;0.62;0.00;0.00;0.62;1.40;0.90;;;22.30;25.90;;;;;;2259808;61;20389;-66
2023/02/03 01:03:37;0.00;0.00;0.62;0.00;0.00;0.62;2.03;0.90;;;22.30;25.90;;;;;;2255951;61;20897;-63
2023/02/03 01:06:23;0.00;0.00;0.62;0.00;0.00;0.62;2.53;1.00;;;22.30;25.90;;;;;;2260034;61;20444;-64
2023/02/03 01:09:07;0.00;0.00;0.62;0.00;0.00;0.62;1.50;0.80;;;22.30;25.90;;;;;;2259716;61;20384;-65
2023/02/03 01:11:52;0.00;0.00;0.62;0.00;0.00;0.62;1.73;1.03;;;22.30;25.90;;;;;;2256303;61;20362;-63
2023/02/03 01:14:36;0.00;0.00;0.62;0.00;0.00;0.62;1.87;0.90;;;22.20;25.80;;;;;;2257041;61;20369;-67
2023/02/03 01:17:23;0.00;0.00;0.62;0.00;0.00;0.62;1.67;0.80;;;22.30;25.90;;;;;;2256498;61;20755;-64
2023/02/03 01:20:12;0.00;0.00;0.62;0.00;0.00;0.62;2.30;1.07;;;22.30;25.90;;;;;;2260138;61;20419;-65
2023/02/03 01:22:57;0.00;0.00;0.62;0.00;0.00;0.62;1.53;0.83;;;22.30;25.90;;;;;;2259601;61;20361;-63
2023/02/03 01:25:42;0.00;0.00;0.62;0.00;0.00;0.62;1.57;0.90;;;22.30;26.00;;;;;;2256707;61;20427;-64
2023/02/03 01:28:26;0.00;0.00;0.62;0.00;0.00;0.62;1.73;1.03;;;22.30;26.00;;;;;;2260057;61;20435;-64
2023/02/03 01:31:13;0.00;0.00;0.62;0.00;0.00;0.62;1.93;1.17;;;22.20;25.90;;;;;;2259402;61;20427;-62
2023/02/03 01:33:59;0.00;0.00;0.62;0.00;0.00;0.62;1.50;1.00;;;22.30;26.00;;;;;;2259702;61;20455;-62
2023/02/03 01:36:46;0.00;0.00;0.62;0.00;0.00;0.62;2.43;1.50;;;22.20;25.90;;;;;;2259472;61;20856;-64
2023/02/03 01:39:30;0.00;0.00;0.62;0.00;0.00;0.62;3.60;2.03;;;22.20;25.90;;;;;;2259363;61;20473;-63
2023/02/03 01:42:15;0.00;0.00;0.62;0.00;0.00;0.62;4.43;3.10;;;22.20;25.90;;;;;;2259855;61;20997;-64
2023/02/03 01:45:00;0.00;0.00;0.62;0.00;0.00;0.62;4.13;2.60;;;22.20;25.90;;;;;;2259685;61;20376;-63
2023/02/03 01:47:49;0.00;0.00;0.62;0.00;0.00;0.62;4.20;2.77;;;22.10;25.90;;;;;;2256302;61;20364;-61
2023/02/03 01:50:36;0.00;0.00;0.62;0.00;0.00;0.62;4.40;2.93;;;22.10;25.90;;;;;;2259642;61;20380;-68
2023/02/03 01:53:24;0.00;0.00;0.62;0.00;0.00;0.62;4.10;3.50;;;22.00;25.90;;;;;;2259071;61;20881;-63
2023/02/03 01:56:09;0.00;0.00;0.62;0.00;0.00;0.62;3.33;3.03;;;22.00;25.90;;;;;;2255884;61;20365;-63
2023/02/03 01:58:54;0.00;0.00;0.62;0.00;0.00;0.62;5.63;4.03;;;21.90;25.90;;;;;;2259753;61;20357;-62
2023/02/03 02:01:39;0.00;0.00;0.62;0.00;0.00;0.62;5.27;3.50;;;21.90;26.00;;;;;;2259745;61;20377;-63
2023/02/03 02:04:33;0.00;0.00;0.62;0.00;0.00;0.62;6.43;3.60;;;21.80;26.00;;;;;;2259535;61;20404;-63
2023/02/03 02:07:18;0.00;0.00;0.62;0.00;0.00;0.62;4.90;3.67;;;21.80;26.00;;;;;;2256020;61;20925;-61
2023/02/03 02:10:06;0.00;0.00;0.62;0.00;0.00;0.62;4.93;3.60;;;21.70;26.10;;;;;;2259830;61;20381;-66
2023/02/03 02:12:55;0.00;0.00;0.62;0.00;0.00;0.62;5.00;3.37;;;21.60;26.10;;;;;;2256561;61;20361;-64
2023/02/03 02:15:51;0.00;0.00;0.62;0.00;0.00;0.62;8.27;4.80;;;21.60;26.20;;;;;;2259469;61;20360;-63
2023/02/03 02:18:54;0.00;0.00;0.62;0.00;0.00;0.62;5.60;3.90;;;21.50;26.10;;;;;;2260005;61;20380;-63
2023/02/03 02:22:00;0.00;0.00;0.62;0.00;0.00;0.62;5.03;3.70;;;21.50;26.20;;;;;;2260367;61;20843;-65
2023/02/03 02:25:17;0.00;0.00;0.62;0.00;0.00;0.62;6.67;3.70;;;21.40;26.20;;;;;;2260405;61;20383;-64
2023/02/03 02:28:55;0.00;0.00;0.62;0.00;0.00;0.62;5.90;4.17;;;21.40;26.30;;;;;;2257238;61;20747;-64
2023/02/03 02:32:19;0.00;0.00;0.62;0.00;0.00;0.62;5.17;4.40;;;21.30;26.30;;;;;;2259851;61;20388;-64
2023/02/03 02:35:15;0.00;0.00;0.62;0.00;0.00;0.62;5.40;3.87;;;21.20;26.30;;;;;;2260321;61;20373;-62
2023/02/03 02:38:10;0.00;0.00;0.62;0.00;0.00;0.62;6.20;3.20;;;21.20;26.40;;;;;;2256627;61;20461;-63
2023/02/03 02:41:06;0.00;0.00;0.62;0.00;0.00;0.62;4.10;3.50;;;21.10;26.40;;;;;;2260052;61;20393;-64
2023/02/03 02:44:00;0.00;0.00;0.62;0.00;0.00;0.62;7.40;3.70;;;21.10;26.50;;;;;;2260006;61;20356;-63
2023/02/03 02:46:49;0.00;0.00;0.62;0.00;0.00;0.62;4.97;3.63;;;21.00;26.50;;;;;;2260419;61;20908;-56
2023/02/03 02:49:43;0.00;0.00;0.62;0.00;0.00;0.62;5.13;3.90;;;21.00;26.50;;;;;;2260187;61;20380;-60
2023/02/03 02:52:31;0.00;0.00;0.62;0.00;0.00;0.62;5.77;3.90;;;20.90;26.50;;;;;;2256904;61;20781;-61
2023/02/03 02:55:26;0.00;0.00;0.62;0.00;0.00;0.62;4.30;3.60;;;20.90;26.60;;;;;;2256819;61;20453;-61
2023/02/03 02:58:15;0.00;0.00;0.62;0.00;0.00;0.62;4.43;3.50;;;20.80;26.60;;;;;;2260487;61;20369;-60
2023/02/03 03:01:02;0.00;0.00;0.62;0.00;0.00;0.62;4.93;3.70;;;20.80;26.70;;;;;;2260168;61;20420;-60
2023/02/03 03:03:48;0.00;0.00;0.62;0.00;0.00;0.62;5.47;4.00;;;20.80;26.80;;;;;;2259969;61;20488;-67
2023/02/03 03:06:40;0.00;0.00;0.62;0.00;0.00;0.62;5.20;3.23;;;20.70;26.70;;;;;;2259826;61;20765;-59
2023/02/03 03:09:34;0.00;0.00;0.62;0.00;0.00;0.62;5.30;3.47;;;20.70;26.80;;;;;;2256805;61;20404;-61
2023/02/03 03:12:22;0.00;0.00;0.62;0.00;0.00;0.62;4.00;3.50;;;20.60;26.80;;;;;;2257521;61;20788;-60
2023/02/03 03:15:15;0.00;0.00;0.62;0.00;0.00;0.62;6.60;4.13;;;20.60;26.90;;;;;;2256970;61;20365;-62
2023/02/03 03:18:07;0.00;0.00;0.62;0.00;0.00;0.62;5.20;3.10;;;20.60;27.00;;;;;;2259611;61;20404;-61
2023/02/03 03:20:56;0.00;0.00;0.62;0.00;0.00;0.62;4.80;3.50;;;20.50;26.90;;;;;;2260429;61;20385;-62
2023/02/03 03:23:48;0.00;0.00;0.62;0.00;0.00;0.62;10.40;3.80;;;20.50;26.90;;;;;;2256677;61;20904;-61
2023/02/03 03:26:39;0.00;0.00;0.62;0.00;0.00;0.62;7.03;3.50;;;20.40;26.90;;;;;;2260424;61;20365;-61
2023/02/03 03:29:30;0.00;0.00;0.62;0.00;0.00;0.62;3.57;2.83;;;20.40;26.90;;;;;;2259822;61;20442;-62
2023/02/03 03:32:15;0.00;0.00;0.62;0.00;0.00;0.62;5.83;3.50;;;20.40;26.90;;;;;;2260121;61;20349;-60
2023/02/03 03:35:01;0.00;0.00;0.62;0.00;0.00;0.62;5.90;3.60;;;20.30;26.80;;;;;;2260638;61;20694;-61
2023/02/03 03:37:54;0.00;0.00;0.62;0.00;0.00;0.62;3.40;2.80;;;20.30;26.90;;;;;;2260117;61;20796;-59
2023/02/03 03:40:47;0.00;0.00;0.62;0.00;0.00;0.62;5.20;3.57;;;20.30;27.00;;;;;;2259643;61;20640;-59
2023/02/03 03:43:36;0.00;0.00;0.62;0.00;0.00;0.62;5.97;3.93;;;20.20;27.00;;;;;;2260086;61;20396;-61
2023/02/03 03:46:28;0.00;0.00;0.62;0.00;0.00;0.62;5.47;3.57;;;20.20;27.10;;;;;;2259632;61;20369;-61
2023/02/03 03:49:15;0.00;0.00;0.62;0.00;0.00;0.62;5.63;3.40;;;20.20;27.20;;;;;;2260540;61;20388;-61
2023/02/03 03:52:05;0.00;0.00;0.62;0.00;0.00;0.62;5.17;3.10;;;20.10;27.10;;;;;;2259996;61;20380;-60
2023/02/03 03:54:52;0.00;0.00;0.62;0.00;0.00;0.62;3.97;2.93;;;20.10;27.20;;;;;;2259797;61;20404;-59
2023/02/03 03:57:43;0.00;0.00;0.62;0.00;0.00;0.62;5.63;3.00;;;20.10;27.30;;;;;;2260117;61;20897;-57
2023/02/03 04:00:32;0.00;0.00;0.62;0.00;0.00;0.62;5.00;2.93;;;20.10;27.30;;;;;;2259973;61;20954;-60
2023/02/03 04:03:22;0.00;0.00;0.62;0.00;0.00;0.62;8.07;4.53;;;20.10;27.30;;;;;;2259988;61;20396;-59
2023/02/03 04:06:06;0.00;0.00;0.62;0.00;0.00;0.62;4.40;3.30;;;20.00;27.30;;;;;;2259844;61;20368;-61
2023/02/03 04:08:52;0.00;0.00;0.62;0.00;0.00;0.62;4.97;2.80;;;20.00;27.30;;;;;;2259997;61;20423;-60
2023/02/03 04:14:41;0.00;0.00;0.62;0.00;0.00;0.62;4.93;3.27;;;20.00;27.30;;;;;;2260249;61;20364;-61
2023/02/03 04:17:26;0.00;0.00;0.62;0.00;0.00;0.62;9.93;3.10;;;20.00;27.40;;;;;;2259606;61;20368;-58
2023/02/03 04:20:12;0.00;0.00;0.62;0.00;0.00;0.62;5.17;2.93;;;20.00;27.40;;;;;;2260186;61;20389;-61
2023/02/03 04:22:58;0.00;0.00;0.62;0.00;0.00;0.62;3.83;2.30;;;19.90;27.40;;;;;;2260598;61;20528;-58
2023/02/03 04:25:43;0.00;0.00;0.62;0.00;0.00;0.62;4.50;3.20;;;19.90;27.40;;;;;;2260520;61;20369;-59
2023/02/03 04:28:28;0.00;0.00;0.62;0.00;0.00;0.62;5.47;3.70;;;19.90;27.50;;;;;;2256458;61;20353;-61
2023/02/03 04:31:14;0.00;0.00;0.62;0.00;0.00;0.62;5.00;3.00;;;19.90;27.50;;;;;;2260100;61;20817;-62
2023/02/03 04:33:59;0.00;0.00;0.62;0.00;0.00;0.62;10.07;3.00;;;19.80;27.50;;;;;;2260530;61;20426;-60
2023/02/03 04:36:44;0.00;0.00;0.62;0.00;0.00;0.62;5.70;4.10;;;19.80;27.50;;;;;;2259669;61;20400;-60
2023/02/03 04:39:29;0.00;0.00;0.62;0.00;0.00;0.62;8.47;3.30;;;19.80;27.50;;;;;;2259795;61;20401;-59
2023/02/03 04:42:13;0.00;0.00;0.62;0.00;0.00;0.62;6.30;2.77;;;19.80;27.50;;;;;;2260280;61;20408;-62
2023/02/03 04:44:58;0.00;0.00;0.62;0.00;0.00;0.62;7.67;3.90;;;19.80;27.60;;;;;;2259833;61;20365;-62
2023/02/03 04:47:44;0.00;0.00;0.62;0.00;0.00;0.62;4.20;2.77;;;19.70;27.60;;;;;;2259643;61;20369;-63
2023/02/03 04:50:29;0.00;0.00;0.62;0.00;0.00;0.62;3.67;2.67;;;19.70;27.60;;;;;;2259934;61;20389;-63
2023/02/03 04:53:14;0.00;0.00;0.62;0.00;0.00;0.62;4.73;2.93;;;19.70;27.60;;;;;;2256179;61;20399;-61
2023/02/03 04:55:59;0.00;0.00;0.62;0.00;0.00;0.62;3.57;2.77;;;19.70;27.70;;;;;;2260599;61;20388;-60
2023/02/03 04:58:44;0.00;0.00;0.62;0.00;0.00;0.62;6.23;3.23;;;19.70;27.70;;;;;;2259945;61;20388;-61
2023/02/03 05:01:29;0.00;0.00;0.62;0.00;0.00;0.62;5.40;2.80;;;19.60;27.60;;;;;;2259778;61;20503;-62
2023/02/03 05:04:15;0.00;0.00;0.62;0.00;0.00;0.62;3.60;2.60;;;19.60;27.70;;;;;;2256923;61;20957;-58
2023/02/03 05:07:00;0.00;0.00;0.62;0.00;0.00;0.62;6.50;3.17;;;19.60;27.70;;;;;;2259581;61;21069;-61
2023/02/03 05:09:45;0.00;0.00;0.62;0.00;0.00;0.62;4.03;3.30;;;19.60;27.70;;;;;;2260064;61;20384;-62
2023/02/03 05:12:30;0.00;0.00;0.62;0.00;0.00;0.62;5.30;2.90;;;19.60;27.70;;;;;;2259953;61;20496;-58
2023/02/03 05:15:15;0.00;0.00;0.62;0.00;0.00;0.62;5.70;2.80;;;19.60;27.80;;;;;;2259458;61;20765;-60
2023/02/03 05:18:00;0.00;0.00;0.62;0.00;0.00;0.62;9.40;3.60;;;19.50;27.70;;;;;;2260089;61;20376;-57
2023/02/03 05:20:46;0.00;0.00;0.62;0.00;0.00;0.62;4.97;2.73;;;19.50;27.70;;;;;;2259762;61;20435;-63
2023/02/03 05:23:30;0.00;0.00;0.62;0.00;0.00;0.62;3.53;2.70;;;19.50;27.80;;;;;;2259330;61;20369;-63
2023/02/03 05:26:15;0.00;0.00;0.62;0.00;0.00;0.62;6.93;2.90;;;19.50;27.90;;;;;;2259891;61;20411;-60
2023/02/03 05:29:00;0.00;0.00;0.62;0.00;0.00;0.62;5.47;3.47;;;19.50;27.90;;;;;;2259810;61;20373;-57
2023/02/03 05:31:45;0.00;0.00;0.62;0.00;0.00;0.62;3.97;2.30;;;19.40;27.80;;;;;;2256742;61;20755;-59
2023/02/03 05:34:29;0.00;0.00;0.62;0.00;0.00;0.62;4.53;2.90;;;19.40;27.80;;;;;;2260223;61;20817;-61
2023/02/03 05:37:15;0.00;0.00;0.62;0.00;0.00;0.62;7.47;3.20;;;19.40;27.90;;;;;;2256275;61;20357;-60
2023/02/03 05:41:51;0.00;0.00;0.62;0.00;0.00;0.62;4.80;2.80;;;19.40;28.00;;;;;;2260401;61;20936;-57
2023/02/03 05:43:04;0.00;0.00;0.62;0.00;0.00;0.62;4.47;2.77;;;19.30;28.00;;;;;;2259480;61;20523;-62
2023/02/03 05:45:49;0.00;0.00;0.62;0.00;0.00;0.62;4.97;2.87;;;19.30;28.00;;;;;;2259742;61;20964;-67
2023/02/03 05:48:36;0.00;0.00;0.62;0.00;0.00;0.62;5.07;2.77;;;19.30;28.00;;;;;;2259679;61;20787;-61
2023/02/03 05:51:21;0.00;0.00;0.62;0.00;0.00;0.62;3.93;2.97;;;19.30;28.10;;;;;;2259572;61;20496;-61
2023/02/03 05:54:08;0.00;0.00;0.62;0.00;0.00;0.62;7.73;3.27;;;19.30;28.20;;;;;;2259659;61;20977;-62
2023/02/03 05:56:53;0.00;0.00;0.62;0.00;0.00;0.62;4.43;2.53;;;19.30;28.20;;;;;;2259214;61;20465;-59
2023/02/03 05:59:38;0.00;0.00;0.62;0.00;0.00;0.62;6.33;2.37;;;19.30;28.20;;;;;;2259222;61;20976;-59
2023/02/03 06:02:23;0.00;0.00;0.62;0.00;0.00;0.62;3.63;2.13;;;19.20;28.20;;;;;;2260167;61;20470;-60
2023/02/03 06:05:08;0.00;0.00;0.62;0.00;0.00;0.62;5.00;1.93;;;19.30;28.20;;;;;;2259220;61;20411;-60
2023/02/03 06:07:53;0.00;0.00;0.62;0.00;0.00;0.62;5.03;2.20;;;19.30;28.30;;;;;;2258841;61;20504;-62
2023/02/03 06:10:39;0.00;0.00;0.62;0.00;0.00;0.62;3.40;1.80;;;19.30;28.20;;;;;;2259869;61;20844;-61
2023/02/03 06:13:24;0.00;0.00;0.62;0.00;0.00;0.62;4.00;1.97;;;19.40;28.20;;;;;;2259724;61;20392;-59
2023/02/03 06:16:09;0.00;0.00;0.62;0.00;0.00;0.62;3.77;1.70;;;19.40;28.00;;;;;;2255684;61;20431;-58
2023/02/03 06:18:58;0.00;0.00;0.62;0.00;0.00;0.62;2.97;1.80;;;19.50;28.00;;;;;;2443587;53;20367;-61
2023/02/03 06:21:43;0.00;0.00;0.62;0.00;0.00;0.62;2.13;1.37;;;19.50;28.50;;;;;;2263455;61;20798;-60
2023/02/03 06:24:27;0.00;0.00;0.62;0.00;0.00;0.62;2.57;1.40;;;19.60;28.00;;;;;;2263973;61;20422;-60
2023/02/03 06:27:13;0.00;0.00;0.62;0.00;0.00;0.62;2.70;1.80;;;19.60;27.90;;;;;;2259775;61;20888;-63
2023/02/03 06:29:58;0.00;0.00;0.62;0.00;0.00;0.62;2.37;1.70;;;19.70;27.90;;;;;;2263237;61;20387;-61
2023/02/03 06:32:43;0.00;0.00;0.62;0.00;0.00;0.62;2.97;1.90;;;19.70;27.90;;;;;;2264025;61;20410;-60
2023/02/03 06:35:28;0.00;0.00;0.62;0.00;0.00;0.62;3.60;2.40;;;19.70;27.80;;;;;;2263443;61;20360;-60
2023/02/03 06:38:12;0.00;0.00;0.62;0.00;0.00;0.62;3.00;2.30;;;19.80;28.40;;;;;;2263510;61;20360;-60
2023/02/03 06:40:57;0.00;0.00;0.62;0.00;0.00;0.62;3.73;2.43;;;19.90;27.80;;;;;;2263826;61;20392;-54
2023/02/03 06:43:43;0.00;0.00;0.62;0.00;0.00;0.62;3.90;2.47;;;19.90;27.80;;;;;;2263410;61;20892;-61
2023/02/03 06:46:29;0.00;0.00;0.62;0.00;0.00;0.62;3.43;2.83;;;19.90;27.70;;;;;;2263665;61;20366;-61
2023/02/03 06:49:14;0.00;0.00;0.62;0.00;0.00;0.62;3.57;2.33;;;20.00;27.70;;;;;;2263680;61;20418;-58
2023/02/03 06:51:59;0.00;0.00;0.62;0.00;0.00;0.62;3.63;2.20;;;20.00;27.70;;;;;;2263225;61;20645;-60
2023/02/03 06:54:44;0.00;0.00;0.62;0.00;0.00;0.62;2.83;2.03;;;20.00;27.60;;;;;;2263900;61;20363;-60
2023/02/03 06:57:29;0.00;0.00;0.62;0.00;0.00;0.62;3.47;2.10;;;20.10;27.60;;;;;;2263418;61;20360;-58
2023/02/03 07:00:17;0.00;0.00;0.62;0.00;0.00;0.62;3.03;2.00;;;20.10;27.60;;;;;;2264756;61;20395;-61
2023/02/03 07:03:03;0.00;0.00;0.62;0.00;0.00;0.62;3.50;2.30;;;20.10;27.50;;;;;;2267166;61;20480;-64
2023/02/03 07:05:47;0.00;0.00;0.62;0.00;0.00;0.62;2.53;1.60;;;20.20;27.60;;;;;;2266472;61;20372;-60
2023/02/03 07:08:32;0.00;0.00;0.62;0.00;0.00;0.62;2.77;2.00;;;20.20;27.50;;;;;;2264846;61;20410;-60
2023/02/03 07:11:17;0.00;0.00;0.62;0.00;0.00;0.62;2.63;1.80;;;20.20;27.50;;;;;;2261093;61;20434;-61
2023/02/03 07:14:02;0.00;0.00;0.62;0.00;0.00;0.62;2.60;1.60;;;20.20;27.40;;;;;;2264301;61;20943;-60
2023/02/03 07:16:48;0.00;0.00;0.62;0.00;0.00;0.62;2.43;1.60;;;20.30;27.40;;;;;;2264339;61;20903;-61
2023/02/03 07:19:33;0.00;0.00;0.62;0.00;0.00;0.62;3.37;2.00;;;20.30;27.40;;;;;;2263861;61;20978;-60
2023/02/03 07:22:18;0.00;0.00;0.62;0.00;0.00;0.62;3.50;1.80;;;20.40;27.40;;;;;;2263617;61;20388;-62
2023/02/03 07:25:03;0.00;0.00;0.62;0.00;0.00;0.62;2.70;1.70;;;20.40;27.40;;;;;;2264277;61;20368;-59
2023/02/03 07:27:47;0.00;0.00;0.62;0.00;0.00;0.62;2.40;1.60;;;20.40;27.40;;;;;;2264398;61;20942;-60
2023/02/03 07:30:32;0.00;0.00;0.62;0.00;0.00;0.62;2.50;1.50;;;20.40;27.80;;;;;;2264771;61;20380;-60
2023/02/03 07:33:19;0.00;0.00;0.62;0.00;0.00;0.62;2.73;1.80;;;20.40;27.80;;;;;;2264522;61;20402;-62
2023/02/03 07:36:06;0.00;0.00;0.62;0.00;0.00;0.62;3.53;1.63;;;20.50;27.30;;;;;;2264436;61;20412;-61
2023/02/03 07:38:50;0.00;0.00;0.62;0.00;0.00;0.62;2.27;1.57;;;20.50;27.20;;;;;;2264926;61;20407;-61
2023/02/03 07:41:35;0.00;0.00;0.62;0.00;0.00;0.62;2.50;1.60;;;20.50;27.20;;;;;;2264640;61;20384;-60
2023/02/03 07:44:19;0.00;0.00;0.62;0.00;0.00;0.62;3.80;1.70;;;20.60;27.20;;;;;;2264333;61;20593;-59
2023/02/03 07:47:04;0.00;0.00;0.62;0.00;0.00;0.62;2.33;1.63;;;20.60;27.20;;;;;;2264195;61;20763;-61
2023/02/03 07:49:50;0.00;0.00;0.62;0.00;0.00;0.62;2.40;1.37;;;20.60;27.00;;;;;;2264614;61;20941;-62
2023/02/03 07:52:36;0.00;0.00;0.62;0.00;0.00;0.62;2.93;1.40;;;20.60;27.00;;;;;;2264631;61;20379;-60
2023/02/03 07:55:21;0.00;0.00;0.62;0.00;0.00;0.62;2.70;1.43;;;20.60;27.00;;;;;;2264755;61;20884;-62
2023/02/03 07:58:06;0.00;0.00;0.62;0.00;0.00;0.62;3.30;1.60;;;20.70;27.10;;;;;;2263391;61;20766;-61
2023/02/03 08:00:51;0.00;0.00;0.62;0.00;0.00;0.62;2.43;1.40;;;20.70;27.10;;;;;;2264858;61;20906;-60
2023/02/03 08:03:36;0.00;0.00;0.62;0.00;0.00;0.62;1.60;1.10;;;20.70;27.10;;;;;;2264658;61;20766;-62
2023/02/03 08:06:22;0.00;0.00;0.62;0.00;0.00;0.62;2.73;1.70;;;20.70;27.10;;;;;;2260483;61;20360;-62
2023/02/03 08:09:07;0.00;0.00;0.62;0.00;0.00;0.62;2.73;1.37;;;20.70;27.10;;;;;;2264469;61;20364;-58
2023/02/03 08:11:51;0.00;0.00;0.62;0.00;0.00;0.62;2.40;1.40;;;20.80;27.20;;;;;;2264774;61;20363;-61
2023/02/03 08:14:36;0.00;0.00;0.62;0.00;0.00;0.62;2.03;1.13;;;20.80;27.20;;;;;;2264261;61;20368;-62
2023/02/03 08:17:20;0.00;0.00;0.62;0.00;0.00;0.62;2.67;1.63;;;20.80;27.20;;;;;;2264023;61;20368;-60
2023/02/03 08:20:07;0.00;0.00;0.62;0.00;0.00;0.62;2.03;1.20;;;20.80;27.20;;;;;;2264348;61;20380;-61
2023/02/03 08:22:53;0.00;0.00;0.62;0.00;0.00;0.62;2.37;1.30;;;20.80;27.20;;;;;;2262029;61;20403;-59
2023/02/03 08:25:38;0.00;0.00;0.62;0.00;0.00;0.62;2.10;1.30;;;20.80;27.20;;;;;;2265093;61;20364;-61
2023/02/03 08:28:22;0.00;0.00;0.62;0.00;0.00;0.62;2.70;1.50;;;20.80;27.20;;;;;;2264503;61;20784;-61
2023/02/03 08:31:11;0.00;0.00;0.62;0.00;0.00;0.62;1.87;1.30;;;20.90;27.20;;;;;;2265527;61;20387;-64
2023/02/03 08:33:56;0.00;0.00;0.62;0.00;0.00;0.62;2.00;1.33;;;20.90;27.30;;;;;;2265447;61;20453;-60
2023/02/03 08:36:42;0.00;0.00;0.62;0.00;0.00;0.62;2.37;1.20;;;20.90;27.20;;;;;;2264974;61;20360;-62
2023/02/03 08:39:29;0.00;0.00;0.62;0.00;0.00;0.62;2.10;1.40;;;20.90;27.20;;;;;;2265438;61;20392;-62
2023/02/03 08:42:13;0.00;0.00;0.62;0.00;0.00;0.62;1.70;1.10;;;20.90;27.20;;;;;;2262331;61;20943;-61
2023/02/03 08:44:58;0.00;0.00;0.62;0.00;0.00;0.62;1.80;1.10;;;20.90;27.20;;;;;;2265411;61;20928;-58
2023/02/03 08:47:42;0.00;0.00;0.62;0.00;0.00;0.62;2.23;1.20;;;20.90;27.20;;;;;;2264779;61;20495;-60
2023/02/03 08:50:27;0.00;0.00;0.62;0.00;0.00;0.62;2.90;1.30;;;20.90;27.20;;;;;;2261281;61;20379;-63
2023/02/03 08:53:12;0.00;0.00;0.62;0.00;0.00;0.62;1.93;1.27;;;20.90;27.30;;;;;;2265034;61;20448;-62
2023/02/03 08:55:58;0.00;0.00;0.62;0.00;0.00;0.62;4.10;1.40;;;21.00;27.30;;;;;;2264422;61;20364;-62
2023/02/03 08:58:43;0.00;0.00;0.62;0.00;0.00;0.62;1.60;1.00;;;21.00;27.30;;;;;;2274269;61;20479;-61
2023/02/03 09:01:28;0.00;0.00;0.62;0.00;0.00;0.62;2.30;1.17;;;21.00;27.30;;;;;;2260975;58;20392;-61
2023/02/03 09:04:18;0.00;0.00;0.62;0.00;0.00;0.62;2.00;0.90;;;21.00;27.30;;;;;;2313997;58;20377;-62
2023/02/03 09:07:03;0.00;0.00;0.62;0.00;0.00;0.62;2.00;1.20;;;21.10;27.40;;;;;;2314554;58;20352;-62
2023/02/03 09:09:48;0.00;0.00;0.62;0.00;0.00;0.62;2.23;1.33;;;21.10;27.90;;;;;;2307928;58;20427;-61
2023/02/03 09:12:34;0.00;0.00;0.62;0.00;0.00;0.62;1.53;0.93;;;21.10;27.40;;;;;;2301720;58;20357;-62
2023/02/03 09:15:18;0.00;0.00;0.62;0.00;0.00;0.62;1.83;1.23;;;21.10;27.40;;;;;;2260323;61;20365;-57
2023/02/03 09:18:03;0.00;0.00;0.62;0.00;0.00;0.62;1.93;1.13;;;21.20;27.40;;;;;;2260140;61;20400;-58
2023/02/03 09:20:48;0.00;0.00;0.62;0.00;0.00;0.62;2.53;1.20;;;21.20;27.50;;;;;;2260021;61;20388;-60
2023/02/03 09:23:33;0.00;0.00;0.62;0.00;0.00;0.62;2.40;1.50;;;21.20;27.40;;;;;;2260454;61;20428;-54
2023/02/03 09:26:19;0.00;0.00;0.62;0.00;0.00;0.62;1.80;1.20;;;21.20;27.40;;;;;;2260155;61;20407;-58
2023/02/03 09:29:06;0.00;0.00;0.62;0.00;0.00;0.62;1.97;1.30;;;21.20;27.40;;;;;;2260278;61;20384;-66
2023/02/03 09:31:51;0.00;0.00;0.62;0.00;0.00;0.62;2.07;1.00;;;21.30;27.50;;;;;;2263558;61;20431;-57
2023/02/03 09:34:36;0.00;0.00;0.62;0.00;0.00;0.62;2.43;1.60;;;21.30;27.50;;;;;;2259666;61;20807;-57
2023/02/03 09:37:21;0.00;0.00;0.62;0.00;0.00;0.62;2.00;1.33;;;21.30;27.50;;;;;;2260886;61;20467;-56
2023/02/03 09:40:16;0.00;0.00;0.62;0.00;0.00;0.62;2.17;1.63;;;21.30;27.50;;;;;;2260402;61;20431;-62
2023/02/03 09:43:21;0.00;0.00;0.62;0.00;0.00;0.62;1.90;1.40;;;21.30;27.50;;;;;;2259414;61;20915;-61
2023/02/03 09:46:12;0.00;0.00;0.62;0.00;0.00;0.62;2.07;1.50;;;21.30;27.50;;;;;;2260539;61;20423;-62
2023/02/03 09:49:13;0.00;0.00;0.62;0.00;0.00;0.62;2.63;1.27;;;21.40;27.50;;;;;;2260646;61;20454;-61
2023/02/03 09:52:04;0.00;0.00;0.62;0.00;0.00;0.62;2.33;1.20;;;21.40;27.50;;;;;;2261172;61;20352;-60
2023/02/03 09:54:58;0.00;0.00;0.62;0.00;0.00;0.62;2.23;1.40;;;21.40;27.50;;;;;;2261035;61;20365;-59
2023/02/03 09:57:47;0.00;0.00;0.62;0.00;0.00;0.62;3.23;1.37;;;21.40;27.50;;;;;;2260577;61;20353;-60
2023/02/03 10:00:36;0.00;0.00;0.62;0.00;0.00;0.62;2.43;1.20;;;21.40;27.50;;;;;;2260970;61;20384;-56
2023/02/03 10:03:13;0.00;0.00;0.62;0.00;0.00;0.62;2.40;1.30;;;21.40;27.50;;;;;;2260881;61;20994;-59
2023/02/03 10:05:54;0.00;0.00;0.62;0.00;0.00;0.62;2.77;1.30;;;21.50;28.00;;;;;;2260674;61;20369;-61
2023/02/03 10:08:33;0.00;0.00;0.62;0.00;0.00;0.62;2.20;1.30;;;21.50;27.50;;;;;;2261144;61;20358;-61
2023/02/03 10:11:12;0.00;0.00;0.62;0.00;0.00;0.62;2.60;1.40;;;21.50;27.50;;;;;;2261103;61;20386;-55
2023/02/03 10:14:14;0.00;0.00;0.62;0.00;0.00;0.62;1.70;1.20;;;21.50;27.50;;;;;;2260874;61;20412;-54
2023/02/03 10:17:18;0.00;0.00;0.62;0.00;0.00;0.62;2.30;1.37;;;21.50;27.40;;;;;;2260951;61;20439;-55
2023/02/03 10:20:12;0.00;0.00;0.62;0.00;0.00;0.62;2.23;1.10;;;21.60;27.50;;;;;;2259964;61;20381;-61
2023/02/03 10:23:01;0.00;0.00;0.62;0.00;0.00;0.62;2.43;1.23;;;21.60;27.50;;;;;;2264473;61;20380;-61
2023/02/03 10:25:54;0.00;0.00;0.62;0.00;0.00;0.62;1.50;1.00;;;21.60;27.40;;;;;;2265074;61;20865;-57
2023/02/03 10:28:45;0.00;0.00;0.62;0.00;0.00;0.62;1.90;1.10;;;21.60;27.40;;;;;;2264834;61;20911;-59
2023/02/03 10:31:34;0.00;0.00;0.62;0.00;0.00;0.62;2.07;1.20;;;21.60;27.40;;;;;;2265439;61;20380;-59
2023/02/03 10:34:21;0.00;0.00;0.62;0.00;0.00;0.62;2.73;1.63;;;21.60;27.40;;;;;;2261051;61;20407;-60
2023/02/03 10:37:18;0.00;0.00;0.62;0.00;0.00;0.62;1.80;1.07;;;21.60;27.40;;;;;;2264260;61;20364;-58
2023/02/03 10:40:04;0.00;0.00;0.62;0.00;0.00;0.62;1.63;1.00;;;21.60;27.40;;;;;;2264836;61;20387;-60
2023/02/03 10:45:58;0.00;0.00;0.62;0.00;0.00;0.62;2.40;1.30;;;21.60;27.30;;;;;;2263028;61;20394;-57
2023/02/03 10:48:43;0.00;0.00;0.62;0.00;0.00;0.62;1.70;1.07;;;21.70;27.40;;;;;;2265484;61;20388;-59
2023/02/03 10:51:33;0.00;0.00;0.62;0.00;0.00;0.62;1.67;1.00;;;21.70;27.40;;;;;;2265180;61;20458;-68
2023/02/03 10:54:33;0.00;0.00;0.62;0.00;0.00;0.62;1.97;1.43;;;21.70;27.40;;;;;;2265075;61;20531;-59
2023/02/03 10:57:19;0.00;0.00;0.62;0.00;0.00;0.62;2.53;1.73;;;21.70;27.30;;;;;;2265947;61;20444;-55
2023/02/03 11:00:19;0.00;0.00;0.62;0.00;0.00;0.62;4.10;2.10;;;21.70;27.30;;;;;;2265777;61;21214;-65
2023/02/03 11:03:13;0.00;0.00;0.62;0.00;0.00;0.62;3.47;1.77;;;21.80;27.40;;;;;;2264759;61;20534;-60
2023/02/03 11:06:11;0.00;0.00;0.62;0.00;0.00;0.62;2.83;1.40;;;21.80;27.40;;;;;;2261792;61;20368;-60